sensor_id;sensor_type;location;lat;lon;timestamp;pressure;altitude;pressure_sealevel;temperature;humidity
57628;BME280;43451;49.060;10.616;2022-07-12T00:00:47;97410.13;;;13.70;95.17
57628;BME280;43451;49.060;10.616;2022-07-12T00:03:13;97414.84;;;13.62;95.74
57628;BME280;43451;49.060;10.616;2022-07-12T00:05:38;97409.38;;;13.66;95.66
57628;BME280;43451;49.060;10.616;2022-07-12T00:08:04;97410.94;;;13.70;95.35
57628;BME280;43451;49.060;10.616;2022-07-12T00:10:31;97414.81;;;13.73;94.79
57628;BME280;43451;49.060;10.616;2022-07-12T00:12:57;97405.88;;;13.62;96.37
57628;BME280;43451;49.060;10.616;2022-07-12T00:15:23;97408.97;;;13.75;96.04
57628;BME280;43451;49.060;10.616;2022-07-12T00:17:49;97412.81;;;13.91;95.24
57628;BME280;43451;49.060;10.616;2022-07-12T00:20:14;97405.44;;;13.78;96.37
57628;BME280;43451;49.060;10.616;2022-07-12T00:22:39;97416.34;;;13.81;96.35
57628;BME280;43451;49.060;10.616;2022-07-12T00:25:05;97412.47;;;13.79;96.51
57628;BME280;43451;49.060;10.616;2022-07-12T00:27:31;97412.38;;;14.00;95.40
57628;BME280;43451;49.060;10.616;2022-07-12T00:29:56;97408.53;;;13.90;95.95
57628;BME280;43451;49.060;10.616;2022-07-12T00:32:21;97406.94;;;13.97;95.35
57628;BME280;43451;49.060;10.616;2022-07-12T00:34:47;97409.28;;;13.94;95.73
57628;BME280;43451;49.060;10.616;2022-07-12T00:37:12;97409.69;;;13.89;95.33
57628;BME280;43451;49.060;10.616;2022-07-12T00:39:38;97414.75;;;13.94;95.08
57628;BME280;43451;49.060;10.616;2022-07-12T00:42:03;97412.03;;;13.87;95.51
57628;BME280;43451;49.060;10.616;2022-07-12T00:44:29;97403.84;;;13.91;95.69
57628;BME280;43451;49.060;10.616;2022-07-12T00:46:56;97411.66;;;13.85;95.56
57628;BME280;43451;49.060;10.616;2022-07-12T00:49:23;97411.66;;;13.85;95.40
57628;BME280;43451;49.060;10.616;2022-07-12T00:51:49;97413.97;;;13.90;95.61
57628;BME280;43451;49.060;10.616;2022-07-12T00:54:16;97414.34;;;14.00;95.18
57628;BME280;43451;49.060;10.616;2022-07-12T00:56:42;97413.19;;;13.93;96.16
57628;BME280;43451;49.060;10.616;2022-07-12T00:59:08;97411.97;;;14.05;94.97
57628;BME280;43451;49.060;10.616;2022-07-12T01:01:34;97409.25;;;14.02;95.32
57628;BME280;43451;49.060;10.616;2022-07-12T01:04:00;97404.56;;;14.02;95.21
57628;BME280;43451;49.060;10.616;2022-07-12T01:06:26;97404.59;;;13.99;95.82
57628;BME280;43451;49.060;10.616;2022-07-12T01:08:52;97405.31;;;14.10;95.22
57628;BME280;43451;49.060;10.616;2022-07-12T01:11:18;97396.72;;;14.11;95.09
57628;BME280;43451;49.060;10.616;2022-07-12T01:13:44;97403.75;;;14.12;95.68
57628;BME280;43451;49.060;10.616;2022-07-12T01:16:10;97397.13;;;14.10;95.47
57628;BME280;43451;49.060;10.616;2022-07-12T01:18:37;97404.97;;;13.97;96.27
57628;BME280;43451;49.060;10.616;2022-07-12T01:21:04;97392.44;;;14.07;95.67
57628;BME280;43451;49.060;10.616;2022-07-12T01:23:33;97396.72;;;14.08;95.85
57628;BME280;43451;49.060;10.616;2022-07-12T01:25:59;97397.16;;;14.03;95.64
57628;BME280;43451;49.060;10.616;2022-07-12T01:28:24;97409.31;;;13.87;96.68
57628;BME280;43451;49.060;10.616;2022-07-12T01:30:50;97403.84;;;13.87;96.69
57628;BME280;43451;49.060;10.616;2022-07-12T01:33:16;97399.19;;;13.81;97.28
57628;BME280;43451;49.060;10.616;2022-07-12T01:35:42;97406.16;;;14.00;95.42
57628;BME280;43451;49.060;10.616;2022-07-12T01:38:08;97401.88;;;13.91;96.15
57628;BME280;43451;49.060;10.616;2022-07-12T01:40:34;97402.25;;;13.93;96.39
57628;BME280;43451;49.060;10.616;2022-07-12T01:43:01;97397.97;;;13.96;96.57
57628;BME280;43451;49.060;10.616;2022-07-12T01:45:26;97396.84;;;13.86;96.80
57628;BME280;43451;49.060;10.616;2022-07-12T01:47:52;97398.38;;;13.87;96.95
57628;BME280;43451;49.060;10.616;2022-07-12T01:50:18;97395.25;;;13.85;97.37
57628;BME280;43451;49.060;10.616;2022-07-12T01:52:45;97392.13;;;13.90;96.59
57628;BME280;43451;49.060;10.616;2022-07-12T01:55:11;97399.56;;;13.79;97.31
57628;BME280;43451;49.060;10.616;2022-07-12T01:57:43;97390.22;;;13.84;97.41
57628;BME280;43451;49.060;10.616;2022-07-12T02:00:10;97393.31;;;13.89;96.69
57628;BME280;43451;49.060;10.616;2022-07-12T02:02:36;97404.66;;;13.77;97.37
57628;BME280;43451;49.060;10.616;2022-07-12T02:05:03;97398.41;;;13.73;97.78
57628;BME280;43451;49.060;10.616;2022-07-12T02:07:30;97399.22;;;13.66;97.70
57628;BME280;43451;49.060;10.616;2022-07-12T02:09:56;97405.50;;;13.67;98.34
57628;BME280;43451;49.060;10.616;2022-07-12T02:12:22;97413.28;;;13.65;98.96
57628;BME280;43451;49.060;10.616;2022-07-12T02:14:48;97410.94;;;13.60;99.51
57628;BME280;43451;49.060;10.616;2022-07-12T02:17:13;97413.69;;;13.60;99.34
57628;BME280;43451;49.060;10.616;2022-07-12T02:19:38;97415.63;;;13.63;100.00
57628;BME280;43451;49.060;10.616;2022-07-12T02:22:04;97422.66;;;13.67;99.89
57628;BME280;43451;49.060;10.616;2022-07-12T02:24:29;97415.59;;;13.81;99.23
57628;BME280;43451;49.060;10.616;2022-07-12T02:26:55;97417.13;;;13.82;98.80
57628;BME280;43451;49.060;10.616;2022-07-12T02:29:20;97403.47;;;13.85;98.33
57628;BME280;43451;49.060;10.616;2022-07-12T02:31:45;97410.84;;;13.88;97.78
57628;BME280;43451;49.060;10.616;2022-07-12T02:34:11;97404.19;;;13.97;96.58
57628;BME280;43451;49.060;10.616;2022-07-12T02:36:36;97400.72;;;13.89;97.32
57628;BME280;43451;49.060;10.616;2022-07-12T02:39:02;97408.56;;;13.76;98.51
57628;BME280;43451;49.060;10.616;2022-07-12T02:41:30;97405.50;;;13.67;98.65
57628;BME280;43451;49.060;10.616;2022-07-12T02:43:56;97400.81;;;13.67;98.81
57628;BME280;43451;49.060;10.616;2022-07-12T02:46:21;97401.59;;;13.64;98.81
57628;BME280;43451;49.060;10.616;2022-07-12T02:48:47;97398.47;;;13.59;98.86
57628;BME280;43451;49.060;10.616;2022-07-12T02:51:12;97394.56;;;13.60;98.63
57628;BME280;43451;49.060;10.616;2022-07-12T02:53:38;97391.84;;;13.67;98.16
57628;BME280;43451;49.060;10.616;2022-07-12T02:56:04;97400.81;;;13.64;98.37
57628;BME280;43451;49.060;10.616;2022-07-12T02:58:30;97391.47;;;13.47;98.79
57628;BME280;43451;49.060;10.616;2022-07-12T03:00:55;97404.75;;;13.38;99.41
57628;BME280;43451;49.060;10.616;2022-07-12T03:03:21;97407.50;;;13.31;100.00
57628;BME280;43451;49.060;10.616;2022-07-12T03:05:47;97404.78;;;13.27;99.71
57628;BME280;43451;49.060;10.616;2022-07-12T03:08:13;97403.22;;;13.22;99.77
57628;BME280;43451;49.060;10.616;2022-07-12T03:10:39;97404.38;;;13.18;100.00
57628;BME280;43451;49.060;10.616;2022-07-12T03:13:05;97400.88;;;13.14;100.00
57628;BME280;43451;49.060;10.616;2022-07-12T03:15:31;97399.28;;;13.13;99.64
57628;BME280;43451;49.060;10.616;2022-07-12T03:17:57;97406.34;;;13.07;99.29
57628;BME280;43451;49.060;10.616;2022-07-12T03:20:23;97413.34;;;13.00;99.22
57628;BME280;43451;49.060;10.616;2022-07-12T03:22:49;97406.75;;;12.94;97.49
57628;BME280;43451;49.060;10.616;2022-07-12T03:25:20;97422.69;;;12.85;96.88
57628;BME280;43451;49.060;10.616;2022-07-12T03:27:46;97427.34;;;12.77;97.27
57628;BME280;43451;49.060;10.616;2022-07-12T03:30:12;97426.97;;;12.72;97.47
57628;BME280;43451;49.060;10.616;2022-07-12T03:32:38;97416.81;;;12.65;97.63
57628;BME280;43451;49.060;10.616;2022-07-12T03:35:04;97420.31;;;12.62;97.96
57628;BME280;43451;49.060;10.616;2022-07-12T03:37:47;97412.53;;;12.53;97.64
57628;BME280;43451;49.060;10.616;2022-07-12T03:40:13;97425.75;;;12.51;97.56
57628;BME280;43451;49.060;10.616;2022-07-12T03:42:39;97425.75;;;12.48;97.88
57628;BME280;43451;49.060;10.616;2022-07-12T03:45:05;97419.53;;;12.47;97.47
57628;BME280;43451;49.060;10.616;2022-07-12T03:47:32;97417.94;;;12.43;96.83
57628;BME280;43451;49.060;10.616;2022-07-12T03:49:57;97426.91;;;12.36;96.77
57628;BME280;43451;49.060;10.616;2022-07-12T03:52:23;97430.38;;;12.26;95.13
57628;BME280;43451;49.060;10.616;2022-07-12T03:54:48;97425.69;;;12.19;95.13
57628;BME280;43451;49.060;10.616;2022-07-12T03:57:14;97430.34;;;12.12;94.87
57628;BME280;43451;49.060;10.616;2022-07-12T03:59:40;97432.66;;;12.06;95.11
57628;BME280;43451;49.060;10.616;2022-07-12T04:02:06;97434.19;;;12.00;96.68
57628;BME280;43451;49.060;10.616;2022-07-12T04:04:31;97430.28;;;12.04;97.63
57628;BME280;43451;49.060;10.616;2022-07-12T04:06:57;97431.09;;;12.08;97.17
57628;BME280;43451;49.060;10.616;2022-07-12T04:09:22;97429.94;;;12.13;97.29
57628;BME280;43451;49.060;10.616;2022-07-12T04:11:48;97438.13;;;12.17;96.73
57628;BME280;43451;49.060;10.616;2022-07-12T04:14:14;97431.91;;;12.20;96.67
57628;BME280;43451;49.060;10.616;2022-07-12T04:16:40;97432.31;;;12.22;96.77
57628;BME280;43451;49.060;10.616;2022-07-12T04:19:06;97430.78;;;12.24;96.92
57628;BME280;43451;49.060;10.616;2022-07-12T04:21:32;97429.59;;;12.29;97.38
57628;BME280;43451;49.060;10.616;2022-07-12T04:23:57;97430.41;;;12.37;97.92
57628;BME280;43451;49.060;10.616;2022-07-12T04:26:23;97440.94;;;12.38;98.07
57628;BME280;43451;49.060;10.616;2022-07-12T04:28:48;97441.34;;;12.44;97.79
57628;BME280;43451;49.060;10.616;2022-07-12T04:31:14;97443.28;;;12.43;97.68
57628;BME280;43451;49.060;10.616;2022-07-12T04:33:39;97445.25;;;12.46;97.97
57628;BME280;43451;49.060;10.616;2022-07-12T04:36:05;97456.16;;;12.53;97.94
57628;BME280;43451;49.060;10.616;2022-07-12T04:38:30;97460.84;;;12.60;97.55
57628;BME280;43451;49.060;10.616;2022-07-12T04:40:56;97455.38;;;12.60;98.14
57628;BME280;43451;49.060;10.616;2022-07-12T04:43:21;97456.97;;;12.72;97.85
57628;BME280;43451;49.060;10.616;2022-07-12T04:45:49;97463.56;;;12.74;97.56
57628;BME280;43451;49.060;10.616;2022-07-12T04:48:15;97456.97;;;12.72;98.04
57628;BME280;43451;49.060;10.616;2022-07-12T04:50:41;97463.19;;;12.76;98.07
57628;BME280;43451;49.060;10.616;2022-07-12T04:53:07;97473.34;;;12.79;98.75
57628;BME280;43451;49.060;10.616;2022-07-12T04:55:32;97464.75;;;12.84;99.05
57628;BME280;43451;49.060;10.616;2022-07-12T04:57:58;97467.50;;;12.88;99.67
57628;BME280;43451;49.060;10.616;2022-07-12T05:00:23;97474.53;;;12.92;100.00
57628;BME280;43451;49.060;10.616;2022-07-12T05:02:49;97474.91;;;13.01;99.86
57628;BME280;43451;49.060;10.616;2022-07-12T05:05:14;97475.69;;;13.06;100.00
57628;BME280;43451;49.060;10.616;2022-07-12T05:07:43;97477.66;;;13.19;99.57
57628;BME280;43451;49.060;10.616;2022-07-12T05:10:08;97483.50;;;13.18;100.00
57628;BME280;43451;49.060;10.616;2022-07-12T05:12:34;97477.28;;;13.28;99.40
57628;BME280;43451;49.060;10.616;2022-07-12T05:15:00;97477.28;;;13.24;99.98
57628;BME280;43451;49.060;10.616;2022-07-12T05:17:26;97473.78;;;13.31;100.00
57628;BME280;43451;49.060;10.616;2022-07-12T05:19:51;97478.06;;;13.36;100.00
57628;BME280;43451;49.060;10.616;2022-07-12T05:22:17;97481.97;;;13.42;100.00
57628;BME280;43451;49.060;10.616;2022-07-12T05:24:42;97479.59;;;13.47;100.00
57628;BME280;43451;49.060;10.616;2022-07-12T05:27:08;97484.69;;;13.56;100.00
57628;BME280;43451;49.060;10.616;2022-07-12T05:29:35;97471.81;;;13.67;100.00
57628;BME280;43451;49.060;10.616;2022-07-12T05:32:01;97481.13;;;13.84;99.58
57628;BME280;43451;49.060;10.616;2022-07-12T05:34:27;97475.63;;;13.91;99.56
57628;BME280;43451;49.060;10.616;2022-07-12T05:36:53;97485.34;;;14.07;99.38
57628;BME280;43451;49.060;10.616;2022-07-12T05:39:18;97483.34;;;14.25;98.88
57628;BME280;43451;49.060;10.616;2022-07-12T05:41:44;97475.50;;;14.34;98.81
57628;BME280;43451;49.060;10.616;2022-07-12T05:44:09;97474.13;;;14.71;97.61
57628;BME280;43451;49.060;10.616;2022-07-12T05:46:35;97483.44;;;15.37;95.60
57628;BME280;43451;49.060;10.616;2022-07-12T05:49:02;97479.00;;;16.60;88.64
57628;BME280;43451;49.060;10.616;2022-07-12T05:51:27;97473.44;;;18.12;80.26
57628;BME280;43451;49.060;10.616;2022-07-12T05:54:11;97473.03;;;19.38;73.96
57628;BME280;43451;49.060;10.616;2022-07-12T05:56:37;97478.28;;;20.11;69.98
57628;BME280;43451;49.060;10.616;2022-07-12T05:59:02;97478.31;;;21.04;66.01
57628;BME280;43451;49.060;10.616;2022-07-12T06:01:28;97483.47;;;21.53;63.97
57628;BME280;43451;49.060;10.616;2022-07-12T06:03:54;97484.81;;;21.96;60.67
57628;BME280;43451;49.060;10.616;2022-07-12T06:06:19;97484.25;;;22.45;58.69
57628;BME280;43451;49.060;10.616;2022-07-12T06:08:45;97483.66;;;23.03;56.74
57628;BME280;43451;49.060;10.616;2022-07-12T06:11:10;97472.84;;;22.96;57.53
57628;BME280;43451;49.060;10.616;2022-07-12T06:13:35;97479.09;;;23.19;55.08
57628;BME280;43451;49.060;10.616;2022-07-12T06:16:01;97485.63;;;22.93;55.71
57628;BME280;43451;49.060;10.616;2022-07-12T06:18:26;97480.97;;;23.31;54.35
57628;BME280;43451;49.060;10.616;2022-07-12T06:20:52;97478.88;;;23.53;52.54
57628;BME280;43451;49.060;10.616;2022-07-12T06:23:18;97482.03;;;23.24;53.92
57628;BME280;43451;49.060;10.616;2022-07-12T06:25:43;97476.50;;;23.33;54.68
57628;BME280;43451;49.060;10.616;2022-07-12T06:28:10;97478.38;;;23.36;52.16
57628;BME280;43451;49.060;10.616;2022-07-12T06:30:36;97481.63;;;22.94;52.34
57628;BME280;43451;49.060;10.616;2022-07-12T06:33:02;97486.50;;;22.15;57.49
57628;BME280;43451;49.060;10.616;2022-07-12T06:35:27;97492.88;;;22.25;56.38
57628;BME280;43451;49.060;10.616;2022-07-12T06:37:53;97489.00;;;21.53;57.16
57628;BME280;43451;49.060;10.616;2022-07-12T06:40:19;97490.44;;;20.55;61.45
57628;BME280;43451;49.060;10.616;2022-07-12T06:42:44;97488.63;;;20.07;65.56
57628;BME280;43451;49.060;10.616;2022-07-12T06:45:10;97490.19;;;20.08;65.55
57628;BME280;43451;49.060;10.616;2022-07-12T06:47:36;97488.50;;;19.81;65.79
57628;BME280;43451;49.060;10.616;2022-07-12T06:50:03;97496.13;;;19.44;67.97
57628;BME280;43451;49.060;10.616;2022-07-12T06:52:28;97493.69;;;19.30;70.01
57628;BME280;43451;49.060;10.616;2022-07-12T06:54:54;97494.91;;;19.13;69.37
57628;BME280;43451;49.060;10.616;2022-07-12T06:57:20;97509.38;;;19.17;70.17
57628;BME280;43451;49.060;10.616;2022-07-12T06:59:45;97502.63;;;19.18;69.38
57628;BME280;43451;49.060;10.616;2022-07-12T07:02:11;97511.06;;;18.94;70.49
57628;BME280;43451;49.060;10.616;2022-07-12T07:04:36;97503.47;;;18.82;71.83
57628;BME280;43451;49.060;10.616;2022-07-12T07:07:02;97508.28;;;18.78;70.40
57628;BME280;43451;49.060;10.616;2022-07-12T07:09:27;97510.50;;;18.83;70.95
57628;BME280;43451;49.060;10.616;2022-07-12T07:11:53;97513.88;;;18.71;72.11
57628;BME280;43451;49.060;10.616;2022-07-12T07:14:19;97521.03;;;18.68;70.55
57628;BME280;43451;49.060;10.616;2022-07-12T07:16:44;97512.50;;;18.83;68.91
57628;BME280;43451;49.060;10.616;2022-07-12T07:19:10;97521.69;;;18.76;70.17
57628;BME280;43451;49.060;10.616;2022-07-12T07:21:35;97517.16;;;18.66;71.17
57628;BME280;43451;49.060;10.616;2022-07-12T07:24:01;97519.47;;;18.67;69.79
57628;BME280;43451;49.060;10.616;2022-07-12T07:26:27;97515.53;;;18.88;66.93
57628;BME280;43451;49.060;10.616;2022-07-12T07:28:52;97523.09;;;18.84;67.71
57628;BME280;43451;49.060;10.616;2022-07-12T07:31:36;97525.41;;;18.66;67.99
57628;BME280;43451;49.060;10.616;2022-07-12T07:34:03;97523.09;;;18.84;67.18
57628;BME280;43451;49.060;10.616;2022-07-12T07:36:29;97519.13;;;18.85;66.19
57628;BME280;43451;49.060;10.616;2022-07-12T07:38:54;97523.63;;;18.95;65.66
57628;BME280;43451;49.060;10.616;2022-07-12T07:41:20;97532.91;;;19.01;65.35
57628;BME280;43451;49.060;10.616;2022-07-12T07:43:45;97526.38;;;18.95;65.85
57628;BME280;43451;49.060;10.616;2022-07-12T07:46:11;97539.13;;;19.06;64.75
57628;BME280;43451;49.060;10.616;2022-07-12T07:48:37;97536.94;;;19.33;60.91
57628;BME280;43451;49.060;10.616;2022-07-12T07:51:02;97532.53;;;19.36;60.66
57628;BME280;43451;49.060;10.616;2022-07-12T07:53:28;97538.91;;;19.33;61.19
57628;BME280;43451;49.060;10.616;2022-07-12T07:55:53;97542.63;;;19.42;59.10
57628;BME280;43451;49.060;10.616;2022-07-12T07:58:19;97540.03;;;19.52;57.87
57628;BME280;43451;49.060;10.616;2022-07-12T08:00:46;97543.66;;;19.48;59.59
57628;BME280;43451;49.060;10.616;2022-07-12T08:03:12;97540.22;;;19.61;58.13
57628;BME280;43451;49.060;10.616;2022-07-12T08:05:38;97538.53;;;19.67;55.05
57628;BME280;43451;49.060;10.616;2022-07-12T08:08:03;97539.28;;;19.67;58.32
57628;BME280;43451;49.060;10.616;2022-07-12T08:10:29;97544.34;;;19.69;59.70
57628;BME280;43451;49.060;10.616;2022-07-12T08:12:54;97532.13;;;19.70;60.63
57628;BME280;43451;49.060;10.616;2022-07-12T08:15:20;97536.09;;;19.85;60.26
57628;BME280;43451;49.060;10.616;2022-07-12T08:17:45;97530.00;;;20.07;59.40
57628;BME280;43451;49.060;10.616;2022-07-12T08:20:11;97532.59;;;20.14;60.23
57628;BME280;43451;49.060;10.616;2022-07-12T08:22:43;97534.59;;;20.26;59.77
57628;BME280;43451;49.060;10.616;2022-07-12T08:25:09;97531.09;;;20.38;58.16
57628;BME280;43451;49.060;10.616;2022-07-12T08:27:34;97531.25;;;20.48;57.72
57628;BME280;43451;49.060;10.616;2022-07-12T08:30:00;97519.50;;;20.60;58.26
57628;BME280;43451;49.060;10.616;2022-07-12T08:32:25;97526.38;;;20.68;58.28
57628;BME280;43451;49.060;10.616;2022-07-12T08:34:50;97522.91;;;20.64;58.28
57628;BME280;43451;49.060;10.616;2022-07-12T08:37:16;97526.72;;;20.83;59.70
57628;BME280;43451;49.060;10.616;2022-07-12T08:39:41;97529.72;;;21.01;58.10
57628;BME280;43451;49.060;10.616;2022-07-12T08:42:07;97521.44;;;21.01;57.40
57628;BME280;43451;49.060;10.616;2022-07-12T08:44:34;97520.19;;;21.02;57.37
57628;BME280;43451;49.060;10.616;2022-07-12T08:46:59;97521.31;;;20.92;57.78
57628;BME280;43451;49.060;10.616;2022-07-12T08:49:25;97524.53;;;20.91;57.83
57628;BME280;43451;49.060;10.616;2022-07-12T08:51:50;97524.84;;;20.93;55.78
57628;BME280;43451;49.060;10.616;2022-07-12T08:54:15;97521.16;;;20.70;57.09
57628;BME280;43451;49.060;10.616;2022-07-12T08:56:44;97529.03;;;20.72;55.95
57628;BME280;43451;49.060;10.616;2022-07-12T09:01:47;97533.69;;;21.00;55.98
57628;BME280;43451;49.060;10.616;2022-07-12T09:04:16;97529.19;;;21.06;54.71
57628;BME280;43451;49.060;10.616;2022-07-12T09:06:42;97531.47;;;21.08;56.60
57628;BME280;43451;49.060;10.616;2022-07-12T09:09:08;97537.13;;;21.17;55.06
57628;BME280;43451;49.060;10.616;2022-07-12T09:11:38;97541.66;;;21.24;54.72
57628;BME280;43451;49.060;10.616;2022-07-12T09:14:05;97543.19;;;21.25;53.05
57628;BME280;43451;49.060;10.616;2022-07-12T09:16:30;97527.72;;;21.53;52.07
57628;BME280;43451;49.060;10.616;2022-07-12T09:19:16;97534.13;;;21.63;53.00
57628;BME280;43451;49.060;10.616;2022-07-12T09:21:52;97534.91;;;21.76;51.75
57628;BME280;43451;49.060;10.616;2022-07-12T09:24:19;97537.75;;;21.85;52.12
57628;BME280;43451;49.060;10.616;2022-07-12T09:26:45;97527.06;;;21.96;53.62
57628;BME280;43451;49.060;10.616;2022-07-12T09:29:12;97531.84;;;21.96;54.22
57628;BME280;43451;49.060;10.616;2022-07-12T09:31:43;97529.81;;;22.09;52.88
57628;BME280;43451;49.060;10.616;2022-07-12T09:34:29;97543.31;;;22.07;51.08
57628;BME280;43451;49.060;10.616;2022-07-12T09:37:13;97542.91;;;21.96;51.26
57628;BME280;43451;49.060;10.616;2022-07-12T09:39:39;97533.25;;;21.53;53.43
57628;BME280;43451;49.060;10.616;2022-07-12T09:42:07;97539.78;;;21.33;51.71
57628;BME280;43451;49.060;10.616;2022-07-12T09:44:35;97539.56;;;21.66;51.34
57628;BME280;43451;49.060;10.616;2022-07-12T09:47:01;97538.53;;;21.86;50.15
57628;BME280;43451;49.060;10.616;2022-07-12T09:49:27;97540.69;;;21.91;50.80
57628;BME280;43451;49.060;10.616;2022-07-12T09:51:56;97530.34;;;22.17;50.47
57628;BME280;43451;49.060;10.616;2022-07-12T09:54:26;97539.97;;;22.12;49.52
57628;BME280;43451;49.060;10.616;2022-07-12T09:56:53;97539.34;;;22.08;51.08
57628;BME280;43451;49.060;10.616;2022-07-12T09:59:22;97527.03;;;21.74;50.30
57628;BME280;43451;49.060;10.616;2022-07-12T10:01:49;97536.47;;;21.64;51.02
57628;BME280;43451;49.060;10.616;2022-07-12T10:04:20;97535.81;;;21.60;51.63
57628;BME280;43451;49.060;10.616;2022-07-12T10:06:45;97526.97;;;21.52;52.22
57628;BME280;43451;49.060;10.616;2022-07-12T10:09:13;97524.97;;;21.40;52.08
57628;BME280;43451;49.060;10.616;2022-07-12T10:11:41;97528.19;;;21.39;52.01
57628;BME280;43451;49.060;10.616;2022-07-12T10:14:18;97523.75;;;21.28;55.47
57628;BME280;43451;49.060;10.616;2022-07-12T10:16:44;97523.09;;;21.50;53.32
57628;BME280;43451;49.060;10.616;2022-07-12T10:19:30;97530.66;;;21.84;49.82
57628;BME280;43451;49.060;10.616;2022-07-12T10:22:02;97526.94;;;22.00;50.50
57628;BME280;43451;49.060;10.616;2022-07-12T10:29:38;97531.28;;;21.88;49.68
57628;BME280;43451;49.060;10.616;2022-07-12T10:32:23;97538.22;;;22.18;50.23
57628;BME280;43451;49.060;10.616;2022-07-12T10:37:24;97529.56;;;22.16;47.88
57628;BME280;43451;49.060;10.616;2022-07-12T10:42:37;97523.81;;;22.45;48.54
57628;BME280;43451;49.060;10.616;2022-07-12T10:45:12;97517.47;;;22.67;46.91
57628;BME280;43451;49.060;10.616;2022-07-12T10:47:59;97518.38;;;22.64;45.28
57628;BME280;43451;49.060;10.616;2022-07-12T10:53:21;97515.31;;;22.93;47.91
57628;BME280;43451;49.060;10.616;2022-07-12T10:56:14;97513.22;;;22.75;46.19
57628;BME280;43451;49.060;10.616;2022-07-12T11:01:21;97516.00;;;22.53;46.18
57628;BME280;43451;49.060;10.616;2022-07-12T11:03:54;97509.09;;;22.58;46.62
57628;BME280;43451;49.060;10.616;2022-07-12T11:06:25;97510.63;;;22.81;45.19
57628;BME280;43451;49.060;10.616;2022-07-12T11:11:17;97501.84;;;23.04;44.64
57628;BME280;43451;49.060;10.616;2022-07-12T11:13:42;97496.34;;;23.23;44.40
57628;BME280;43451;49.060;10.616;2022-07-12T11:16:08;97495.50;;;23.44;42.49
57628;BME280;43451;49.060;10.616;2022-07-12T11:18:35;97489.00;;;23.38;41.48
57628;BME280;43451;49.060;10.616;2022-07-12T11:21:04;97495.53;;;23.53;42.06
57628;BME280;43451;49.060;10.616;2022-07-12T11:23:31;97495.56;;;23.72;44.02
57628;BME280;43451;49.060;10.616;2022-07-12T11:26:16;97494.28;;;23.54;45.04
57628;BME280;43451;49.060;10.616;2022-07-12T11:28:43;97487.41;;;23.28;46.72
57628;BME280;43451;49.060;10.616;2022-07-12T11:31:17;97490.38;;;23.33;45.53
57628;BME280;43451;49.060;10.616;2022-07-12T11:33:46;97488.19;;;23.19;46.30
57628;BME280;43451;49.060;10.616;2022-07-12T11:36:14;97485.44;;;23.28;44.51
57628;BME280;43451;49.060;10.616;2022-07-12T11:38:41;97485.19;;;23.54;44.39
57628;BME280;43451;49.060;10.616;2022-07-12T11:41:08;97485.06;;;23.67;44.46
57628;BME280;43451;49.060;10.616;2022-07-12T11:43:35;97494.91;;;23.58;46.35
57628;BME280;43451;49.060;10.616;2022-07-12T11:46:02;97478.88;;;23.62;45.14
57628;BME280;43451;49.060;10.616;2022-07-12T11:48:31;97494.97;;;23.77;43.96
57628;BME280;43451;49.060;10.616;2022-07-12T11:51:04;97491.28;;;23.80;43.49
57628;BME280;43451;49.060;10.616;2022-07-12T11:53:31;97487.72;;;23.70;44.46
57628;BME280;43451;49.060;10.616;2022-07-12T11:55:58;97480.50;;;23.82;42.91
57628;BME280;43451;49.060;10.616;2022-07-12T11:58:26;97487.88;;;24.03;42.16
57628;BME280;43451;49.060;10.616;2022-07-12T12:00:52;97481.22;;;24.10;41.29
57628;BME280;43451;49.060;10.616;2022-07-12T12:03:19;97481.09;;;24.04;42.66
57628;BME280;43451;49.060;10.616;2022-07-12T12:05:49;97473.06;;;24.06;44.99
57628;BME280;43451;49.060;10.616;2022-07-12T12:08:15;97470.88;;;24.20;43.28
57628;BME280;43451;49.060;10.616;2022-07-12T12:10:55;97476.59;;;24.35;43.00
57628;BME280;43451;49.060;10.616;2022-07-12T12:13:21;97479.22;;;24.20;41.72
57628;BME280;43451;49.060;10.616;2022-07-12T12:15:56;97460.59;;;23.93;43.00
57628;BME280;43451;49.060;10.616;2022-07-12T12:18:52;97471.69;;;23.83;42.57
57628;BME280;43451;49.060;10.616;2022-07-12T12:21:25;97474.13;;;23.63;44.64
57628;BME280;43451;49.060;10.616;2022-07-12T12:24:08;97476.56;;;23.61;44.42
57628;BME280;43451;49.060;10.616;2022-07-12T12:26:34;97477.00;;;23.41;43.81
57628;BME280;43451;49.060;10.616;2022-07-12T12:29:01;97475.03;;;23.51;45.86
57628;BME280;43451;49.060;10.616;2022-07-12T12:31:27;97473.06;;;23.70;45.53
57628;BME280;43451;49.060;10.616;2022-07-12T12:33:54;97475.53;;;23.86;43.59
57628;BME280;43451;49.060;10.616;2022-07-12T12:36:28;97464.44;;;23.95;44.13
57628;BME280;43451;49.060;10.616;2022-07-12T12:38:58;97455.16;;;24.17;43.34
57628;BME280;43451;49.060;10.616;2022-07-12T12:41:26;97457.16;;;24.35;40.26
57628;BME280;43451;49.060;10.616;2022-07-12T12:44:03;97463.78;;;24.55;40.30
57628;BME280;43451;49.060;10.616;2022-07-12T12:46:51;97459.63;;;24.42;41.47
57628;BME280;43451;49.060;10.616;2022-07-12T12:49:18;97454.06;;;24.42;39.71
57628;BME280;43451;49.060;10.616;2022-07-12T12:51:55;97455.16;;;24.44;41.79
57628;BME280;43451;49.060;10.616;2022-07-12T12:54:34;97449.69;;;24.68;40.62
57628;BME280;43451;49.060;10.616;2022-07-12T12:57:07;97455.25;;;25.01;39.35
57628;BME280;43451;49.060;10.616;2022-07-12T12:59:35;97458.03;;;25.01;37.76
57628;BME280;43451;49.060;10.616;2022-07-12T13:02:04;97453.00;;;24.91;39.14
57628;BME280;43451;49.060;10.616;2022-07-12T13:04:36;97453.91;;;24.97;38.72
57628;BME280;43451;49.060;10.616;2022-07-12T13:07:02;97454.31;;;25.05;38.69
57628;BME280;43451;49.060;10.616;2022-07-12T13:09:29;97457.16;;;24.86;39.93
57628;BME280;43451;49.060;10.616;2022-07-12T13:11:56;97451.69;;;24.77;41.20